Delta Junction, Alaska
Current Conditions -  °F | °C
As of 10:51 AM on Friday 24 Oct 2014 (Local Time) from PABI Reporting Station
Overcast Overcast  
Wind Chill:   Ceiling: 7500
Heat Index: 16°   Visibility: 10mi
Dew Point: 16°   Wind: 6mph
Humidity: 100%   Direction: 110°ESE
Pressure: 29.81"   Gusts: NA
Location:  64.04°N, 145.73°W
Report Text: PABI 241851Z 11005KT 10SM FEW010 OVC075 M09/M09 A2981 RMK AO2 SNE45 CIG THN P0000 I1000
Loading
Personal Weather Stations






























Interactive Weather Map
Tropical Storm Tracking
New forecast layout! Learn more

10-Day Weather Forecast

Advertisements
Track Severe Weather on mobile